Southport, Florida
Current Conditions -  °F | °C
As of 3:53 PM on Monday 20 Oct 2014 (Local Time) from KECP Reporting Station
Few Clouds Few Clouds  
Wind Chill: 80°   Ceiling: Unl
Heat Index: 80°   Visibility: 10mi
Dew Point: 57°   Wind: 5mph
Humidity: 45%   Direction: 140°SE
Pressure: 29.96"   Gusts: NA
Location:  30.3555°N, 85.7317°W
Report Text: KECP 202053Z 14004KT 10SM FEW040 27/14 A2996 RMK AO2 SLP157 T02670139 56017
Loading
Personal Weather Stations






























Interactive Weather Map
Tropical Storm Tracking
New forecast layout! Learn more

10-Day Weather Forecast

Advertisements
Track Severe Weather on mobile